PWSweather.com
Personal Weather Stations
Station Observations
WISCHPK61
Green Bay Schmitt Park, Green Bay, WI 54311

Green Bay Schmitt ParkGreen Bay, WI 54311

Lat: 44.514277, Lon: -87.935067

Elevation: 735

Station Type: Acu Rite Pro Weather Center model 02032C

http://greenbayweathercam.com

High Low Average
Temperature 76.5°F24.7°C 50.4°F10.2°C 60.3°F15.7°C
Dew Point 76.2°F24.6°C 43.6°F6.4°C 56.8°F13.8°C
Winds 2.3 mph 3.7 kmh Calm Calm Calm SWCalm SW
Wind Gusts 4.6 mph7.4 kmh -- --
Humidity 99% 45% 90%
Pressure 29.23 in989.8 mb 29.13 in986.5 mb -
Precipitation 0.01 in0.3 mm - -
Hour Temp Dew Point Humidity Winds Wind Gusts Pressure Precip Precip Rate Daily Precip Total
12:00 AM 51.1°F10.6°C 50.8°F10.4°C 99% Calm Calm -- 29.17 in987.8 mb - 0.00 in0.0 mm 0.00 in0.0 mm
01:00 AM 51.1°F10.6°C 50.8°F10.4°C 99% Calm Calm -- 29.16 in987.5 mb - 0.00 in0.0 mm 0.00 in0.0 mm
02:00 AM 50.4°F10.2°C 48.5°F9.2°C 93% Calm Calm -- 29.15 in987.1 mb - 0.00 in0.0 mm 0.00 in0.0 mm
03:00 AM 50.4°F10.2°C 50.1°F10.1°C 99% Calm Calm -- 29.13 in986.5 mb - 0.00 in0.0 mm 0.00 in0.0 mm
04:00 AM 50.5°F10.3°C 43.6°F6.4°C 77% Calm Calm 2.3 mph3.7 kmh 29.13 in986.5 mb - 0.00 in0.0 mm 0.00 in0.0 mm
05:00 AM 50.7°F10.4°C 50.4°F10.2°C 99% Calm Calm -- 29.14 in986.8 mb - 0.00 in0.0 mm 0.00 in0.0 mm
06:00 AM 50.9°F10.5°C 48.4°F9.1°C 91% Calm Calm -- 29.14 in986.8 mb - 0.00 in0.0 mm 0.00 in0.0 mm
07:00 AM 51.4°F10.8°C 44.8°F7.1°C 78% 1.2 mph W1.9 kmh W -- 29.16 in987.5 mb - 0.00 in0.0 mm 0.00 in0.0 mm
08:00 AM 52.3°F11.3°C 52.0°F11.1°C 99% Calm Calm 1.2 mph1.9 kmh 29.17 in987.8 mb - 0.01 in0.3 mm 0.01 in0.3 mm
09:00 AM 55.3°F12.9°C 55.0°F12.8°C 99% Calm Calm -- 29.18 in988.1 mb - 0.00 in0.0 mm 0.01 in0.3 mm
10:00 AM 58.6°F14.8°C 47.7°F8.7°C 67% 1.2 mph NNW1.9 kmh NNW -- 29.18 in988.1 mb - 0.00 in0.0 mm 0.01 in0.3 mm
11:00 AM 62.1°F16.7°C 61.8°F16.6°C 99% Calm Calm 1.2 mph1.9 kmh 29.19 in988.5 mb - 0.00 in0.0 mm 0.01 in0.3 mm
12:00 PM 66.5°F19.2°C 66.2°F19.0°C 99% Calm Calm -- 29.19 in988.5 mb - 0.00 in0.0 mm 0.01 in0.3 mm
01:00 PM 71.0°F21.7°C 70.7°F21.5°C 99% 2.3 mph WSW3.7 kmh WSW 4.6 mph7.4 kmh 29.19 in988.5 mb - 0.00 in0.0 mm 0.01 in0.3 mm
02:00 PM 76.5°F24.7°C 76.2°F24.6°C 99% Calm Calm 1.2 mph1.9 kmh 29.19 in988.5 mb - 0.00 in0.0 mm 0.01 in0.3 mm
03:00 PM 73.4°F23.0°C 62.6°F17.0°C 69% Calm Calm -- 29.19 in988.5 mb - 0.00 in0.0 mm 0.01 in0.3 mm
04:00 PM 71.9°F22.2°C 71.6°F22.0°C 99% Calm Calm 1.2 mph1.9 kmh 29.19 in988.5 mb - 0.00 in0.0 mm 0.01 in0.3 mm
05:00 PM 71.2°F21.8°C 70.9°F21.6°C 99% Calm Calm -- 29.19 in988.5 mb - 0.00 in0.0 mm 0.01 in0.3 mm
06:00 PM 68.7°F20.4°C 46.5°F8.1°C 45% Calm Calm -- 29.19 in988.5 mb - 0.00 in0.0 mm 0.01 in0.3 mm
07:00 PM 68.0°F20.0°C 67.7°F19.8°C 99% Calm Calm -- 29.20 in988.8 mb - 0.00 in0.0 mm 0.01 in0.3 mm
08:00 PM 65.1°F18.4°C 50.0°F10.0°C 58% Calm Calm -- 29.20 in988.8 mb - 0.00 in0.0 mm 0.01 in0.3 mm
09:00 PM 61.9°F16.6°C 61.6°F16.4°C 99% Calm Calm -- 29.21 in989.2 mb - 0.00 in0.0 mm 0.01 in0.3 mm
10:00 PM 58.2°F14.6°C 57.9°F14.4°C 99% Calm Calm -- 29.22 in989.5 mb - 0.00 in0.0 mm 0.01 in0.3 mm
11:00 PM 56.1°F13.4°C 55.8°F13.2°C 99% Calm Calm -- 29.23 in989.8 mb - 0.00 in0.0 mm 0.01 in0.3 mm